createdAt,value
2017-02-04T00:00:24.826Z,0
2017-02-04T00:01:33.783Z,0
2017-02-04T00:02:42.735Z,0
2017-02-04T00:03:51.778Z,0
2017-02-04T00:05:00.819Z,0
2017-02-04T00:06:10.181Z,0
2017-02-04T00:07:19.134Z,0
2017-02-04T00:08:28.086Z,0
2017-02-04T00:09:37.452Z,0
2017-02-04T00:10:46.404Z,0
2017-02-04T00:11:55.352Z,0
2017-02-04T00:13:04.308Z,0
2017-02-04T00:14:13.347Z,0
2017-02-04T00:15:22.302Z,0
2017-02-04T00:16:31.259Z,0
2017-02-04T00:17:40.214Z,0
2017-02-04T00:18:49.172Z,0
2017-02-04T00:19:58.128Z,0
2017-02-04T00:21:07.080Z,0
2017-02-04T00:22:16.036Z,0
2017-02-04T00:23:24.988Z,0
2017-02-04T00:24:33.936Z,0
2017-02-04T00:25:43.450Z,0
2017-02-04T00:26:52.718Z,0
2017-02-04T00:28:01.717Z,0
2017-02-04T00:29:11.114Z,0
2017-02-04T00:30:20.067Z,0
2017-02-04T00:31:29.024Z,0
2017-02-04T00:32:38.039Z,0
2017-02-04T00:33:47.163Z,0
2017-02-04T00:34:56.261Z,0
2017-02-04T00:36:05.253Z,0
2017-02-04T00:37:14.808Z,0
2017-02-04T00:38:23.885Z,0
2017-02-04T00:39:33.020Z,0
2017-02-04T00:40:42.338Z,0
2017-02-04T00:41:51.925Z,0
2017-02-04T00:43:00.878Z,0
2017-02-04T00:44:10.209Z,0
2017-02-04T00:45:19.728Z,0
2017-02-04T00:46:28.683Z,0
2017-02-04T00:47:37.635Z,0
2017-02-04T00:48:47.315Z,0
2017-02-04T00:49:56.270Z,0
2017-02-04T00:51:06.306Z,0
2017-02-04T00:52:15.384Z,0
2017-02-04T00:53:24.336Z,0
2017-02-04T00:54:33.294Z,0
2017-02-04T00:55:43.920Z,0
2017-02-04T00:56:53.530Z,0
2017-02-04T00:58:02.484Z,0
2017-02-04T00:59:12.281Z,0
2017-02-04T01:00:22.972Z,0
2017-02-04T01:01:32.454Z,0
2017-02-04T01:02:42.137Z,0
2017-02-04T01:03:52.525Z,0
2017-02-04T01:05:02.942Z,0
2017-02-04T01:06:12.941Z,0
2017-02-04T01:07:21.893Z,0
2017-02-04T01:08:31.671Z,0
2017-02-04T01:09:41.687Z,0
2017-02-04T01:10:52.410Z,0
2017-02-04T01:12:02.892Z,0
2017-02-04T01:13:11.932Z,0
2017-02-04T01:14:20.888Z,0
2017-02-04T01:15:31.279Z,0
2017-02-04T01:16:40.944Z,0
2017-02-04T01:17:51.962Z,0
2017-02-04T01:19:01.635Z,0
2017-02-04T01:20:10.991Z,0
2017-02-04T01:21:19.944Z,0
2017-02-04T01:22:29.336Z,0
2017-02-04T01:23:39.670Z,0
2017-02-04T01:24:49.046Z,0
2017-02-04T01:25:59.885Z,0
2017-02-04T01:27:10.749Z,0
2017-02-04T01:28:21.154Z,0
2017-02-04T01:29:30.382Z,0
2017-02-04T01:30:40.974Z,0
2017-02-04T01:31:49.927Z,0
2017-02-04T01:32:59.984Z,0
2017-02-04T01:34:10.361Z,0
2017-02-04T01:35:19.319Z,0
2017-02-04T01:36:28.950Z,0
2017-02-04T01:37:38.750Z,0
2017-02-04T01:38:49.101Z,0
2017-02-04T01:39:58.519Z,0
2017-02-04T01:41:07.508Z,0
2017-02-04T01:42:16.458Z,0
2017-02-04T01:43:26.241Z,0
2017-02-04T01:44:37.825Z,0
2017-02-04T01:45:49.091Z,0
2017-02-04T01:46:58.350Z,0
2017-02-04T01:48:08.199Z,0
2017-02-04T01:49:19.133Z,0
2017-02-04T01:50:29.722Z,0
2017-02-04T01:51:38.681Z,0
2017-02-04T01:52:49.132Z,0
2017-02-04T01:53:59.083Z,0
2017-02-04T01:55:09.648Z,0
2017-02-04T01:56:18.743Z,0
2017-02-04T01:57:29.506Z,0
2017-02-04T01:58:38.459Z,0
2017-02-04T01:59:47.937Z,0
2017-02-04T02:00:57.808Z,0
2017-02-04T02:02:06.806Z,0
2017-02-04T02:03:15.758Z,0
2017-02-04T02:04:26.231Z,0
2017-02-04T02:05:35.188Z,0
2017-02-04T02:06:44.710Z,0
2017-02-04T02:07:53.664Z,0
2017-02-04T02:09:02.760Z,0
2017-02-04T02:10:11.836Z,0
2017-02-04T02:11:21.961Z,0
2017-02-04T02:12:31.898Z,0
2017-02-04T02:13:41.682Z,0
2017-02-04T02:14:50.934Z,0
2017-02-04T02:16:00.910Z,0
2017-02-04T02:17:10.839Z,0
2017-02-04T02:18:21.578Z,0
2017-02-04T02:19:30.546Z,0
2017-02-04T02:20:39.533Z,0
2017-02-04T02:21:48.491Z,0
2017-02-04T02:22:57.849Z,0
2017-02-04T02:24:07.638Z,0
2017-02-04T02:25:16.744Z,0
2017-02-04T02:26:27.808Z,0
2017-02-04T02:27:36.826Z,0
2017-02-04T02:28:45.775Z,0
2017-02-04T02:29:55.411Z,0
2017-02-04T02:31:05.306Z,0
2017-02-04T02:32:16.192Z,0
2017-02-04T02:33:26.488Z,0
2017-02-04T02:34:36.706Z,0
2017-02-04T02:35:45.745Z,0
2017-02-04T02:36:55.416Z,0
2017-02-04T02:38:06.450Z,0
2017-02-04T02:39:15.418Z,0
2017-02-04T02:40:25.161Z,0
2017-02-04T02:41:34.150Z,0
2017-02-04T02:42:43.095Z,0
2017-02-04T02:43:52.071Z,0
2017-02-04T02:45:01.025Z,0
2017-02-04T02:46:11.568Z,0
2017-02-04T02:47:21.225Z,0
2017-02-04T02:48:30.646Z,0
2017-02-04T02:49:40.081Z,0
2017-02-04T02:50:49.408Z,0
2017-02-04T02:51:59.399Z,0
2017-02-04T02:53:08.818Z,0
2017-02-04T02:54:18.920Z,0
2017-02-04T02:55:28.632Z,0
2017-02-04T02:56:38.943Z,0
2017-02-04T02:57:50.136Z,0
2017-02-04T02:58:59.486Z,0
2017-02-04T03:00:09.340Z,0
2017-02-04T03:01:18.750Z,0
2017-02-04T03:02:29.047Z,0
2017-02-04T03:03:40.376Z,0
2017-02-04T03:04:49.665Z,0
2017-02-04T03:05:58.618Z,0
2017-02-04T03:07:07.573Z,0
2017-02-04T03:08:16.612Z,0
2017-02-04T03:09:25.569Z,0
2017-02-04T03:10:34.517Z,0
2017-02-04T03:11:43.476Z,0
2017-02-04T03:12:52.432Z,0
2017-02-04T03:14:01.384Z,0
2017-02-04T03:15:10.743Z,0
2017-02-04T03:16:19.698Z,0
2017-02-04T03:17:28.655Z,0
2017-02-04T03:18:37.610Z,0
2017-02-04T03:19:46.562Z,0
2017-02-04T03:20:55.514Z,0
2017-02-04T03:22:04.467Z,0
2017-02-04T03:23:13.417Z,0
2017-02-04T03:24:22.969Z,0
2017-02-04T03:25:31.921Z,0
2017-02-04T03:26:40.874Z,0
2017-02-04T03:27:49.830Z,0
2017-02-04T03:28:58.790Z,0
2017-02-04T03:30:07.743Z,0
2017-02-04T03:31:16.777Z,0
2017-02-04T03:32:25.733Z,0
2017-02-04T03:33:34.688Z,0
2017-02-04T03:34:43.642Z,0
2017-02-04T03:35:52.601Z,0
2017-02-04T03:37:01.558Z,0
2017-02-04T03:38:10.930Z,0
2017-02-04T03:39:19.883Z,0
2017-02-04T03:40:28.839Z,0
2017-02-04T03:41:37.790Z,0
2017-02-04T03:42:46.743Z,0
2017-02-04T03:43:55.696Z,0
2017-02-04T03:45:04.650Z,0
2017-02-04T03:46:13.602Z,0
2017-02-04T03:47:22.553Z,0
2017-02-04T03:48:31.913Z,0
2017-02-04T03:49:40.865Z,0
2017-02-04T03:50:49.822Z,0
2017-02-04T03:51:59.271Z,0
2017-02-04T03:53:08.223Z,0
2017-02-04T03:54:17.669Z,0
2017-02-04T03:55:26.710Z,0
2017-02-04T03:56:35.666Z,0
2017-02-04T03:57:44.618Z,0
2017-02-04T03:58:53.663Z,0
2017-02-04T04:00:02.617Z,0
2017-02-04T04:01:11.573Z,0
2017-02-04T04:02:20.527Z,0
2017-02-04T04:03:29.477Z,0
2017-02-04T04:04:38.425Z,0
2017-02-04T04:05:47.374Z,0
2017-02-04T04:06:56.326Z,0
2017-02-04T04:08:05.278Z,0
2017-02-04T04:09:14.313Z,0
2017-02-04T04:10:23.267Z,0
2017-02-04T04:11:32.223Z,0
2017-02-04T04:12:41.183Z,0
2017-02-04T04:13:50.139Z,0
2017-02-04T04:14:59.097Z,0
2017-02-04T04:16:08.047Z,0
2017-02-04T04:17:17.082Z,0
2017-02-04T04:18:26.038Z,0
2017-02-04T04:19:34.986Z,0
2017-02-04T04:20:43.935Z,0
2017-02-04T04:21:52.988Z,0
2017-02-04T04:23:01.942Z,0
2017-02-04T04:24:10.897Z,0
2017-02-04T04:25:19.849Z,0
2017-02-04T04:26:28.799Z,0
2017-02-04T04:27:37.752Z,0
2017-02-04T04:28:46.709Z,0
2017-02-04T04:29:55.660Z,0
2017-02-04T04:31:04.614Z,0
2017-02-04T04:32:13.974Z,0
2017-02-04T04:33:22.939Z,0
2017-02-04T04:34:31.895Z,0
2017-02-04T04:35:40.844Z,0
2017-02-04T04:36:49.798Z,0
2017-02-04T04:37:58.841Z,0
2017-02-04T04:39:07.797Z,0
2017-02-04T04:40:16.750Z,0
2017-02-04T04:41:25.793Z,0
2017-02-04T04:42:34.750Z,0
2017-02-04T04:43:43.701Z,0
2017-02-04T04:44:52.705Z,0
2017-02-04T04:46:01.747Z,0
2017-02-04T04:47:10.699Z,0
2017-02-04T04:48:19.649Z,0
2017-02-04T04:49:28.602Z,0
2017-02-04T04:50:37.558Z,0
2017-02-04T04:51:46.517Z,0
2017-02-04T04:52:55.471Z,0
2017-02-04T04:54:04.426Z,0
2017-02-04T04:55:13.377Z,0
2017-02-04T04:56:22.334Z,0
2017-02-04T04:57:31.284Z,0
2017-02-04T04:58:40.233Z,0
2017-02-04T04:59:49.190Z,0
2017-02-04T05:00:58.140Z,0
2017-02-04T05:02:07.095Z,0
2017-02-04T05:03:16.047Z,0
2017-02-04T05:04:25.000Z,0
2017-02-04T05:05:33.955Z,0
2017-02-04T05:06:42.903Z,0
2017-02-04T05:07:51.858Z,0
2017-02-04T05:09:00.806Z,0
2017-02-04T05:10:09.756Z,0
2017-02-04T05:11:18.799Z,0
2017-02-04T05:12:27.754Z,0
2017-02-04T05:13:36.705Z,0
2017-02-04T05:14:45.658Z,0
2017-02-04T05:15:54.614Z,0
2017-02-04T05:17:03.569Z,0
2017-02-04T05:18:12.521Z,0
2017-02-04T05:19:21.480Z,0
2017-02-04T05:20:30.434Z,0
2017-02-04T05:21:39.384Z,0
2017-02-04T05:22:48.335Z,0
2017-02-04T05:23:57.289Z,0
2017-02-04T05:25:06.686Z,0
2017-02-04T05:26:15.732Z,0
2017-02-04T05:27:25.096Z,0
2017-02-04T05:28:34.082Z,0
2017-02-04T05:29:43.035Z,0
2017-02-04T05:30:51.985Z,0
2017-02-04T05:32:00.938Z,0
2017-02-04T05:33:09.893Z,0
2017-02-04T05:34:18.936Z,0
2017-02-04T05:35:27.884Z,0
2017-02-04T05:36:36.834Z,0
2017-02-04T05:37:45.798Z,0
2017-02-04T05:38:54.834Z,0
2017-02-04T05:40:03.781Z,0
2017-02-04T05:41:12.737Z,0
2017-02-04T05:42:21.718Z,0
2017-02-04T05:43:30.672Z,0
2017-02-04T05:44:39.623Z,0
2017-02-04T05:45:48.577Z,0
2017-02-04T05:46:57.941Z,0
2017-02-04T05:48:06.899Z,0
2017-02-04T05:49:15.851Z,0
2017-02-04T05:50:24.815Z,0
2017-02-04T05:51:33.853Z,0
2017-02-04T05:52:42.806Z,0
2017-02-04T05:53:51.761Z,0
2017-02-04T05:55:00.718Z,0
2017-02-04T05:56:09.666Z,0
2017-02-04T05:57:18.617Z,0
2017-02-04T05:58:27.579Z,0
2017-02-04T05:59:36.532Z,0
2017-02-04T06:00:45.483Z,0
2017-02-04T06:01:54.437Z,0
2017-02-04T06:03:03.802Z,0
2017-02-04T06:04:12.751Z,0
2017-02-04T06:05:21.704Z,0
2017-02-04T06:06:30.667Z,0
2017-02-04T06:07:39.623Z,0
2017-02-04T06:08:48.579Z,0
2017-02-04T06:09:57.617Z,0
2017-02-04T06:11:06.571Z,0
2017-02-04T06:12:15.524Z,0
2017-02-04T06:13:24.885Z,0
2017-02-04T06:14:33.837Z,0
2017-02-04T06:15:42.789Z,0
2017-02-04T06:16:51.739Z,0
2017-02-04T06:18:00.688Z,0
2017-02-04T06:19:09.643Z,0
2017-02-04T06:20:18.601Z,0
2017-02-04T06:21:27.554Z,0
2017-02-04T06:22:36.501Z,0
2017-02-04T06:23:45.864Z,0
2017-02-04T06:24:54.824Z,0
2017-02-04T06:26:03.795Z,0
2017-02-04T06:27:12.745Z,0
2017-02-04T06:28:21.692Z,0
2017-02-04T06:29:30.647Z,0
2017-02-04T06:30:39.595Z,0
2017-02-04T06:31:48.547Z,0
2017-02-04T06:32:57.509Z,0
2017-02-04T06:34:06.463Z,0
2017-02-04T06:35:15.411Z,0
2017-02-04T06:36:24.367Z,0
2017-02-04T06:37:33.408Z,0
2017-02-04T06:38:42.364Z,0
2017-02-04T06:39:51.352Z,0
2017-02-04T06:41:00.313Z,0
2017-02-04T06:42:09.267Z,0
2017-02-04T06:43:18.221Z,0
2017-02-04T06:44:28.330Z,0
2017-02-04T06:45:37.282Z,0
2017-02-04T06:46:46.235Z,0
2017-02-04T06:47:55.193Z,0
2017-02-04T06:49:04.236Z,0
2017-02-04T06:50:13.187Z,0
2017-02-04T06:51:22.143Z,0
2017-02-04T06:52:31.101Z,0
2017-02-04T06:53:40.056Z,0
2017-02-04T06:54:49.019Z,0
2017-02-04T06:55:57.974Z,0
2017-02-04T06:57:06.926Z,0
2017-02-04T06:58:15.884Z,5
2017-02-04T06:59:25.247Z,5
2017-02-04T07:00:34.197Z,5
2017-02-04T07:01:43.187Z,5
2017-02-04T07:02:52.144Z,5
2017-02-04T07:04:01.502Z,5
2017-02-04T07:05:10.866Z,5
2017-02-04T07:06:19.820Z,5
2017-02-04T07:07:28.772Z,5
2017-02-04T07:08:37.725Z,5
2017-02-04T07:09:46.765Z,5
2017-02-04T07:10:55.719Z,10
2017-02-04T07:12:04.671Z,10
2017-02-04T07:13:13.624Z,10
2017-02-04T07:14:22.578Z,10
2017-02-04T07:15:31.528Z,10
2017-02-04T07:16:40.569Z,10
2017-02-04T07:17:49.525Z,10
2017-02-04T07:18:58.476Z,10
2017-02-04T07:20:07.433Z,15
2017-02-04T07:21:16.385Z,10
2017-02-04T07:22:25.425Z,15
2017-02-04T07:23:34.377Z,15
2017-02-04T07:24:43.334Z,15
2017-02-04T07:25:52.285Z,15
2017-02-04T07:27:01.236Z,15
2017-02-04T07:28:10.196Z,15
2017-02-04T07:29:19.152Z,15
2017-02-04T07:30:28.111Z,15
2017-02-04T07:31:37.060Z,15
2017-02-04T07:32:46.565Z,20
2017-02-04T07:33:56.003Z,20
2017-02-04T07:35:05.481Z,20
2017-02-04T07:36:14.437Z,20
2017-02-04T07:37:23.599Z,20
2017-02-04T07:38:32.684Z,25
2017-02-04T07:39:41.723Z,25
2017-02-04T07:40:50.766Z,25
2017-02-04T07:41:59.728Z,25
2017-02-04T07:43:08.681Z,25
2017-02-04T07:44:17.721Z,25
2017-02-04T07:45:26.671Z,30
2017-02-04T07:46:35.629Z,30
2017-02-04T07:47:44.580Z,30
2017-02-04T07:48:53.533Z,30
2017-02-04T07:50:02.481Z,25
2017-02-04T07:51:11.439Z,30
2017-02-04T07:52:20.389Z,30
2017-02-04T07:53:29.340Z,30
2017-02-04T07:54:38.297Z,30
2017-02-04T07:55:47.248Z,30
2017-02-04T07:56:56.239Z,35
2017-02-04T07:58:05.195Z,35
2017-02-04T07:59:14.149Z,30
2017-02-04T08:00:23.108Z,35
2017-02-04T08:01:32.059Z,35
2017-02-04T08:02:41.012Z,35
2017-02-04T08:03:50.376Z,35
2017-02-04T08:04:59.331Z,30
2017-02-04T08:06:08.285Z,35
2017-02-04T08:07:17.242Z,30
2017-02-04T08:08:26.598Z,20
2017-02-04T08:09:35.961Z,20
2017-02-04T08:10:44.923Z,20
2017-02-04T08:11:53.873Z,20
2017-02-04T08:13:02.832Z,20
2017-02-04T08:14:11.795Z,20
2017-02-04T08:15:20.747Z,20
2017-02-04T08:16:29.709Z,25
2017-02-04T08:17:38.663Z,25
2017-02-04T08:18:47.615Z,30
2017-02-04T08:19:56.842Z,30
2017-02-04T08:21:05.925Z,30
2017-02-04T08:22:14.883Z,30
2017-02-04T08:23:24.534Z,35
2017-02-04T08:24:33.640Z,40
2017-02-04T08:25:42.593Z,45
2017-02-04T08:26:51.542Z,45
2017-02-04T08:28:01.140Z,50
2017-02-04T08:29:11.929Z,50
2017-02-04T08:30:22.164Z,60
2017-02-04T08:31:32.468Z,55
2017-02-04T08:32:42.046Z,55
2017-02-04T08:33:51.343Z,45
2017-02-04T08:35:01.069Z,40
2017-02-04T08:36:11.400Z,40
2017-02-04T08:37:21.014Z,40
2017-02-04T08:38:31.066Z,45
2017-02-04T08:39:40.018Z,50
2017-02-04T08:40:49.058Z,60
2017-02-04T08:41:58.529Z,65
2017-02-04T08:43:08.155Z,60
2017-02-04T08:44:17.110Z,60
2017-02-04T08:45:26.567Z,50
2017-02-04T08:46:35.521Z,55
2017-02-04T08:47:44.479Z,65
2017-02-04T08:48:53.518Z,70
2017-02-04T08:50:03.339Z,75
2017-02-04T08:51:12.294Z,65
2017-02-04T08:52:21.243Z,75
2017-02-04T08:53:30.517Z,60
2017-02-04T08:54:39.474Z,55
2017-02-04T08:55:48.528Z,60
2017-02-04T08:56:57.480Z,55
2017-02-04T08:58:07.602Z,55
2017-02-04T08:59:17.813Z,50
2017-02-04T09:00:27.802Z,75
2017-02-04T09:01:36.921Z,50
2017-02-04T09:02:46.464Z,45
2017-02-04T09:03:55.621Z,45
2017-02-04T09:05:05.126Z,45
2017-02-04T09:06:14.093Z,50
2017-02-04T09:07:23.402Z,45
2017-02-04T09:08:32.662Z,40
2017-02-04T09:09:41.614Z,40
2017-02-04T09:10:51.251Z,45
2017-02-04T09:12:00.206Z,45
2017-02-04T09:13:09.243Z,50
2017-02-04T09:14:18.211Z,60
2017-02-04T09:15:27.657Z,80
2017-02-04T09:16:36.613Z,80
2017-02-04T09:17:46.137Z,85
2017-02-04T09:18:55.567Z,80
2017-02-04T09:20:04.884Z,85
2017-02-04T09:21:14.488Z,80
2017-02-04T09:22:25.423Z,85
2017-02-04T09:23:34.819Z,90
2017-02-04T09:24:44.487Z,90
2017-02-04T09:25:53.796Z,85
2017-02-04T09:27:02.883Z,85
2017-02-04T09:28:11.972Z,90
2017-02-04T09:29:21.667Z,85
2017-02-04T09:30:31.516Z,85
2017-02-04T09:31:40.874Z,95
2017-02-04T09:32:50.754Z,80
2017-02-04T09:34:00.021Z,80
2017-02-04T09:35:08.978Z,90
2017-02-04T09:36:17.932Z,90
2017-02-04T09:37:26.887Z,90
2017-02-04T09:38:35.842Z,80
2017-02-04T09:39:44.797Z,80
2017-02-04T09:40:53.751Z,105
2017-02-04T09:42:02.749Z,70
2017-02-04T09:43:11.709Z,90
2017-02-04T09:44:20.773Z,95
2017-02-04T09:45:29.818Z,90
2017-02-04T09:46:39.954Z,90
2017-02-04T09:47:48.909Z,100
2017-02-04T09:48:57.867Z,90
2017-02-04T09:50:06.822Z,90
2017-02-04T09:51:16.831Z,110
2017-02-04T09:52:25.789Z,115
2017-02-04T09:53:35.394Z,110
2017-02-04T09:54:44.357Z,95
2017-02-04T09:55:53.688Z,110
2017-02-04T09:57:02.749Z,75
2017-02-04T09:58:12.099Z,105
2017-02-04T09:59:21.057Z,95
2017-02-04T10:00:30.221Z,90
2017-02-04T10:01:39.856Z,85
2017-02-04T10:02:48.816Z,90
2017-02-04T10:03:58.149Z,80
2017-02-04T10:05:07.814Z,90
2017-02-04T10:06:16.925Z,75
2017-02-04T10:07:26.805Z,80
2017-02-04T10:08:35.832Z,75
2017-02-04T10:09:45.158Z,80
2017-02-04T10:10:54.325Z,80
2017-02-04T10:12:03.285Z,70
2017-02-04T10:13:13.045Z,65
2017-02-04T10:14:22.929Z,70
2017-02-04T10:15:33.517Z,75
2017-02-04T10:16:43.063Z,70
2017-02-04T10:17:52.062Z,75
2017-02-04T10:19:01.016Z,80
2017-02-04T10:20:10.719Z,70
2017-02-04T10:21:20.744Z,65
2017-02-04T10:22:30.066Z,55
2017-02-04T10:23:39.528Z,60
2017-02-04T10:24:48.666Z,55
2017-02-04T10:25:57.707Z,70
2017-02-04T10:27:07.397Z,80
2017-02-04T10:28:16.888Z,95
2017-02-04T10:29:26.504Z,115
2017-02-04T10:30:36.540Z,105
2017-02-04T10:31:46.159Z,100
2017-02-04T10:32:55.230Z,90
2017-02-04T10:34:05.060Z,90
2017-02-04T10:35:14.214Z,90
2017-02-04T10:36:23.737Z,85
2017-02-04T10:37:32.814Z,95
2017-02-04T10:38:41.777Z,95
2017-02-04T10:39:51.023Z,95
2017-02-04T10:41:01.329Z,95
2017-02-04T10:42:11.600Z,80
2017-02-04T10:43:21.020Z,95
2017-02-04T10:44:30.315Z,110
2017-02-04T10:45:39.269Z,135
2017-02-04T10:46:48.228Z,135
2017-02-04T10:47:57.372Z,115
2017-02-04T10:49:07.092Z,105
2017-02-04T10:50:16.803Z,115
2017-02-04T10:51:25.760Z,125
2017-02-04T10:52:34.805Z,110
2017-02-04T10:53:43.766Z,110
2017-02-04T10:54:52.723Z,115
2017-02-04T10:56:02.453Z,100
2017-02-04T10:57:12.055Z,110
2017-02-04T10:58:21.734Z,115
2017-02-04T10:59:30.688Z,120
2017-02-04T11:00:39.642Z,110
2017-02-04T11:01:49.203Z,120
2017-02-04T11:02:58.198Z,100
2017-02-04T11:04:07.162Z,105
2017-02-04T11:05:16.172Z,110
2017-02-04T11:06:25.214Z,110
2017-02-04T11:07:34.176Z,115
2017-02-04T11:08:43.218Z,95
2017-02-04T11:09:52.186Z,105
2017-02-04T11:11:01.142Z,110
2017-02-04T11:12:10.100Z,115
2017-02-04T11:13:19.059Z,120
2017-02-04T11:14:28.020Z,120
2017-02-04T11:15:37.068Z,105
2017-02-04T11:16:46.029Z,100
2017-02-04T11:17:54.981Z,95
2017-02-04T11:19:03.943Z,90
2017-02-04T11:20:13.313Z,85
2017-02-04T11:21:22.277Z,90
2017-02-04T11:22:31.231Z,115
2017-02-04T11:23:40.187Z,115
2017-02-04T11:24:49.203Z,70
2017-02-04T11:25:58.165Z,65
2017-02-04T11:27:07.116Z,65
2017-02-04T11:28:16.075Z,75
2017-02-04T11:29:25.031Z,65
2017-02-04T11:30:34.430Z,85
2017-02-04T11:31:43.386Z,100
2017-02-04T11:32:52.352Z,110
2017-02-04T11:34:01.480Z,105
2017-02-04T11:35:10.522Z,120
2017-02-04T11:36:19.481Z,125
2017-02-04T11:37:28.437Z,120
2017-02-04T11:38:37.483Z,115
2017-02-04T11:39:46.440Z,145
2017-02-04T11:40:55.798Z,140
2017-02-04T11:42:04.758Z,170
2017-02-04T11:43:13.714Z,135
2017-02-04T11:44:22.669Z,120
2017-02-04T11:45:31.635Z,115
2017-02-04T11:46:40.588Z,135
2017-02-04T11:47:49.541Z,140
2017-02-04T11:48:58.499Z,125
2017-02-04T11:50:07.447Z,145
2017-02-04T11:51:16.443Z,130
2017-02-04T11:52:25.410Z,125
2017-02-04T11:53:34.362Z,115
2017-02-04T11:54:43.341Z,105
2017-02-04T11:55:52.296Z,100
2017-02-04T11:57:01.254Z,100
2017-02-04T11:58:10.212Z,90
2017-02-04T11:59:19.169Z,95
2017-02-04T12:00:28.533Z,95
2017-02-04T12:01:37.488Z,95
2017-02-04T12:02:46.450Z,95
2017-02-04T12:03:55.409Z,90
2017-02-04T12:05:04.365Z,90
2017-02-04T12:06:13.325Z,95
2017-02-04T12:07:22.276Z,80
2017-02-04T12:08:31.239Z,70
2017-02-04T12:09:40.194Z,75
2017-02-04T12:10:49.240Z,80
2017-02-04T12:11:58.196Z,90
2017-02-04T12:13:07.154Z,90
2017-02-04T12:14:16.110Z,85
2017-02-04T12:15:25.074Z,85
2017-02-04T12:16:34.033Z,90
2017-02-04T12:17:42.991Z,90
2017-02-04T12:18:51.949Z,90
2017-02-04T12:20:01.393Z,80
2017-02-04T12:21:10.352Z,80
2017-02-04T12:22:19.400Z,70
2017-02-04T12:23:28.363Z,70
2017-02-04T12:24:37.321Z,75
2017-02-04T12:25:46.276Z,90
2017-02-04T12:26:55.320Z,100
2017-02-04T12:28:04.272Z,120
2017-02-04T12:29:13.230Z,105
2017-02-04T12:30:22.595Z,120
2017-02-04T12:31:31.556Z,125
2017-02-04T12:32:40.510Z,120
2017-02-04T12:33:49.471Z,120
2017-02-04T12:34:58.430Z,125
2017-02-04T12:36:07.789Z,125
2017-02-04T12:37:16.833Z,105
2017-02-04T12:38:25.789Z,105
2017-02-04T12:39:34.746Z,105
2017-02-04T12:40:43.706Z,90
2017-02-04T12:41:52.660Z,95
2017-02-04T12:43:01.617Z,95
2017-02-04T12:44:10.698Z,105
2017-02-04T12:45:19.656Z,100
2017-02-04T12:46:28.610Z,95
2017-02-04T12:47:37.565Z,85
2017-02-04T12:48:46.520Z,80
2017-02-04T12:49:55.480Z,85
2017-02-04T12:51:04.438Z,85
2017-02-04T12:52:13.392Z,85
2017-02-04T12:53:22.435Z,95
2017-02-04T12:54:31.386Z,115
2017-02-04T12:55:40.352Z,115
2017-02-04T12:56:49.313Z,110
2017-02-04T12:57:58.269Z,100
2017-02-04T12:59:07.221Z,100
2017-02-04T13:00:16.588Z,90
2017-02-04T13:01:25.954Z,85
2017-02-04T13:02:34.905Z,70
2017-02-04T13:03:43.857Z,65
2017-02-04T13:04:53.305Z,70
2017-02-04T13:06:02.264Z,60
2017-02-04T13:07:11.221Z,50
2017-02-04T13:08:20.262Z,50
2017-02-04T13:09:29.219Z,55
2017-02-04T13:10:38.169Z,55
2017-02-04T13:11:47.303Z,70
2017-02-04T13:12:56.264Z,85
2017-02-04T13:14:05.218Z,85
2017-02-04T13:15:14.177Z,75
2017-02-04T13:16:23.129Z,70
2017-02-04T13:17:32.082Z,80
2017-02-04T13:18:41.041Z,75
2017-02-04T13:19:50.084Z,75
2017-02-04T13:20:59.042Z,75
2017-02-04T13:22:08.501Z,95
2017-02-04T13:23:17.454Z,110
2017-02-04T13:24:26.496Z,120
2017-02-04T13:25:35.450Z,115
2017-02-04T13:26:44.406Z,115
2017-02-04T13:27:53.361Z,125
2017-02-04T13:29:02.318Z,105
2017-02-04T13:30:11.279Z,100
2017-02-04T13:31:20.235Z,105
2017-02-04T13:32:29.189Z,80
2017-02-04T13:33:38.151Z,70
2017-02-04T13:34:47.101Z,70
2017-02-04T13:35:56.055Z,65
2017-02-04T13:37:05.008Z,60
2017-02-04T13:38:13.967Z,55
2017-02-04T13:39:22.928Z,55
2017-02-04T13:40:31.885Z,60
2017-02-04T13:41:40.840Z,60
2017-02-04T13:42:49.792Z,70
2017-02-04T13:43:58.748Z,80
2017-02-04T13:45:07.882Z,80
2017-02-04T13:46:16.838Z,75
2017-02-04T13:47:25.794Z,65
2017-02-04T13:48:34.746Z,65
2017-02-04T13:49:43.701Z,65
2017-02-04T13:50:52.653Z,70
2017-02-04T13:52:01.640Z,55
2017-02-04T13:53:10.680Z,50
2017-02-04T13:54:19.634Z,60
2017-02-04T13:55:28.592Z,65
2017-02-04T13:56:37.546Z,70
2017-02-04T13:57:46.504Z,70
2017-02-04T13:58:55.467Z,65
2017-02-04T14:00:04.470Z,60
2017-02-04T14:01:13.831Z,55
2017-02-04T14:02:22.785Z,55
2017-02-04T14:03:32.153Z,50
2017-02-04T14:04:41.111Z,40
2017-02-04T14:05:50.065Z,40
2017-02-04T14:06:59.021Z,40
2017-02-04T14:08:07.976Z,40
2017-02-04T14:09:16.931Z,35
2017-02-04T14:10:25.886Z,40
2017-02-04T14:11:34.839Z,45
2017-02-04T14:12:43.795Z,45
2017-02-04T14:13:52.755Z,45
2017-02-04T14:15:02.112Z,50
2017-02-04T14:16:11.165Z,50
2017-02-04T14:17:20.116Z,50
2017-02-04T14:18:29.158Z,45
2017-02-04T14:19:38.121Z,40
2017-02-04T14:20:47.487Z,40
2017-02-04T14:21:56.445Z,40
2017-02-04T14:23:05.403Z,35
2017-02-04T14:24:14.363Z,30
2017-02-04T14:25:23.319Z,45
2017-02-04T14:26:32.371Z,50
2017-02-04T14:27:41.336Z,45
2017-02-04T14:28:50.703Z,45
2017-02-04T14:29:59.656Z,35
2017-02-04T14:31:08.612Z,30
2017-02-04T14:32:17.652Z,25
2017-02-04T14:33:26.605Z,25
2017-02-04T14:34:35.569Z,25
2017-02-04T14:35:44.527Z,25
2017-02-04T14:36:53.481Z,30
2017-02-04T14:38:02.433Z,30
2017-02-04T14:39:11.983Z,40
2017-02-04T14:40:20.936Z,40
2017-02-04T14:41:29.891Z,30
2017-02-04T14:42:38.844Z,25
2017-02-04T14:43:47.794Z,25
2017-02-04T14:44:56.745Z,20
2017-02-04T14:46:05.698Z,20
2017-02-04T14:47:14.649Z,20
2017-02-04T14:48:23.603Z,20
2017-02-04T14:49:32.645Z,25
2017-02-04T14:50:41.605Z,25
2017-02-04T14:51:50.556Z,20
2017-02-04T14:52:59.504Z,25
2017-02-04T14:54:08.464Z,20
2017-02-04T14:55:17.419Z,20
2017-02-04T14:56:26.463Z,20
2017-02-04T14:57:35.825Z,15
2017-02-04T14:58:44.782Z,20
2017-02-04T14:59:53.736Z,20
2017-02-04T15:01:02.700Z,15
2017-02-04T15:02:11.656Z,15
2017-02-04T15:03:20.610Z,15
2017-02-04T15:04:29.565Z,15
2017-02-04T15:05:38.519Z,15
2017-02-04T15:06:47.475Z,15
2017-02-04T15:07:56.429Z,15
2017-02-04T15:09:05.381Z,15
2017-02-04T15:10:14.331Z,10
2017-02-04T15:11:23.287Z,10
2017-02-04T15:12:32.649Z,10
2017-02-04T15:13:41.598Z,10
2017-02-04T15:14:50.553Z,10
2017-02-04T15:15:59.507Z,10
2017-02-04T15:17:08.461Z,10
2017-02-04T15:18:17.415Z,10
2017-02-04T15:19:26.457Z,10
2017-02-04T15:20:35.411Z,10
2017-02-04T15:21:44.366Z,10
2017-02-04T15:22:53.318Z,5
2017-02-04T15:24:02.766Z,5
2017-02-04T15:25:11.718Z,5
2017-02-04T15:26:20.671Z,5
2017-02-04T15:27:29.625Z,5
2017-02-04T15:28:38.578Z,5
2017-02-04T15:29:47.535Z,5
2017-02-04T15:30:56.491Z,5
2017-02-04T15:32:05.488Z,5
2017-02-04T15:33:14.447Z,5
2017-02-04T15:34:23.816Z,5
2017-02-04T15:35:32.772Z,5
2017-02-04T15:36:41.729Z,5
2017-02-04T15:37:50.680Z,5
2017-02-04T15:38:59.634Z,5
2017-02-04T15:40:08.586Z,5
2017-02-04T15:41:17.538Z,0
2017-02-04T15:42:27.076Z,0
2017-02-04T15:43:36.039Z,0
2017-02-04T15:44:44.992Z,0
2017-02-04T15:45:54.033Z,0
2017-02-04T15:47:02.989Z,0
2017-02-04T15:48:11.937Z,0
2017-02-04T15:49:20.893Z,0
2017-02-04T15:50:29.851Z,0
2017-02-04T15:51:38.814Z,0
2017-02-04T15:52:47.770Z,0
2017-02-04T15:53:56.806Z,0
2017-02-04T15:55:06.177Z,0
2017-02-04T15:56:15.128Z,0
2017-02-04T15:57:24.076Z,0
2017-02-04T15:58:33.038Z,0
2017-02-04T15:59:41.993Z,0
2017-02-04T16:00:50.949Z,0
2017-02-04T16:02:00.083Z,0
2017-02-04T16:03:09.037Z,0
2017-02-04T16:04:18.085Z,0
2017-02-04T16:05:27.124Z,0
2017-02-04T16:06:36.078Z,0
2017-02-04T16:07:45.115Z,0
2017-02-04T16:08:54.072Z,0
2017-02-04T16:10:03.118Z,0
2017-02-04T16:11:12.248Z,0
2017-02-04T16:12:21.201Z,0
2017-02-04T16:13:30.150Z,0
2017-02-04T16:14:39.106Z,0
2017-02-04T16:15:48.057Z,0
2017-02-04T16:16:57.005Z,0
2017-02-04T16:18:06.370Z,0
2017-02-04T16:19:15.321Z,0
2017-02-04T16:20:24.278Z,0
2017-02-04T16:21:33.240Z,0
2017-02-04T16:22:42.194Z,0
2017-02-04T16:23:51.144Z,0
2017-02-04T16:25:00.097Z,0
2017-02-04T16:26:09.053Z,0
2017-02-04T16:27:18.022Z,0
2017-02-04T16:28:28.673Z,0
2017-02-04T16:29:37.632Z,0
2017-02-04T16:30:47.296Z,0
2017-02-04T16:31:56.855Z,0
2017-02-04T16:33:05.813Z,0
2017-02-04T16:34:14.774Z,0
2017-02-04T16:35:24.151Z,0
2017-02-04T16:36:33.730Z,0
2017-02-04T16:37:44.203Z,0
2017-02-04T16:38:53.791Z,0
2017-02-04T16:40:03.319Z,0
2017-02-04T16:41:13.008Z,0